Time;durP1;ratioP1;P1;durP2;ratioP2;P2;SDS_P1;SDS_P2;PMS_P1;PMS_P2;Temp;Humidity;BMP_temperature;BMP_pressure;BME280_temperature;BME280_humidity;BME280_pressure;Samples;Min_cycle;Max_cycle;Signal;HPM_P1;HPM_P2
2022/02/09 00:05:19;;;;;;;6.20;5.27;;;7.30;99.90;;;;;;5084308;28;20249;-75
2022/02/09 00:07:58;;;;;;;7.47;5.10;;;7.30;99.90;;;;;;5088498;28;20247;-76
2022/02/09 00:10:26;;;;;;;8.37;5.63;;;7.30;99.90;;;;;;5094299;28;20608;-75
2022/02/09 00:13:08;;;;;;;6.70;5.53;;;7.30;99.90;;;;;;5094354;28;20228;-75
2022/02/09 00:15:44;;;;;;;6.50;5.80;;;7.30;99.90;;;;;;5106962;28;20576;-75
2022/02/09 00:18:21;;;;;;;7.60;5.67;;;7.30;99.90;;;;;;5093097;28;20204;-75
2022/02/09 00:21:18;;;;;;;6.10;4.90;;;7.30;99.90;;;;;;5093087;28;20612;-75
2022/02/09 00:24:05;;;;;;;9.17;6.77;;;7.30;99.90;;;;;;5082109;28;20201;-75
2022/02/09 00:27:05;;;;;;;12.60;11.60;;;7.30;99.90;;;;;;5086400;28;20227;-76
2022/02/09 00:32:54;;;;;;;7.73;6.73;;;7.20;99.90;;;;;;5084153;28;20205;-75
2022/02/09 00:35:45;;;;;;;11.37;10.33;;;7.20;99.90;;;;;;5093791;28;20223;-75
2022/02/09 00:38:35;;;;;;;11.87;10.90;;;7.20;99.90;;;;;;5091059;28;20208;-75
2022/02/09 00:44:11;;;;;;;8.27;5.30;;;7.20;99.90;;;;;;5090642;28;20275;-75
2022/02/09 01:38:48;;;;;;;11.20;10.23;;;7.00;99.90;;;;;;5084483;28;20192;-75
2022/02/09 01:50:58;;;;;;;13.30;12.00;;;7.00;99.90;;;;;;5092030;28;20192;-75
2022/02/09 01:55:44;;;;;;;12.80;11.27;;;6.90;99.90;;;;;;5084395;28;20593;-75
2022/02/09 01:58:10;;;;;;;12.67;11.57;;;6.90;99.90;;;;;;5091476;28;20656;-75
2022/02/09 02:00:37;;;;;;;13.93;11.53;;;6.90;99.90;;;;;;5091840;28;20201;-75
2022/02/09 02:03:04;;;;;;;11.97;10.97;;;6.80;99.90;;;;;;5091502;28;20255;-75
2022/02/09 02:05:33;;;;;;;12.20;11.10;;;6.90;99.90;;;;;;5090143;28;20249;-75
2022/02/09 02:08:02;;;;;;;12.90;11.80;;;6.80;99.90;;;;;;5091571;28;20668;-75
2022/02/09 02:10:38;;;;;;;12.53;11.43;;;6.80;99.90;;;;;;5090730;28;20578;-76
2022/02/09 02:13:17;;;;;;;12.70;11.60;;;6.80;99.90;;;;;;5089813;28;20195;-75
2022/02/09 02:16:08;;;;;;;12.13;11.23;;;6.80;99.90;;;;;;5089981;28;20223;-75
2022/02/09 02:18:35;;;;;;;12.43;11.30;;;6.70;99.90;;;;;;5083999;28;20195;-75
2022/02/09 02:21:19;;;;;;;12.30;10.80;;;6.70;99.90;;;;;;5076158;28;20669;-76
2022/02/09 02:24:10;;;;;;;12.43;11.33;;;6.70;99.90;;;;;;5085009;28;20210;-75
2022/02/09 02:26:52;;;;;;;12.10;11.00;;;6.60;99.90;;;;;;5078573;28;20216;-75
2022/02/09 02:32:45;;;;;;;12.17;11.00;;;6.60;99.90;;;;;;5130049;27;20618;-77
2022/02/09 02:38:43;;;;;;;11.47;10.57;;;6.60;99.90;;;;;;5087427;28;20315;-77
2022/02/09 02:58:41;;;;;;;12.23;11.17;;;6.50;99.90;;;;;;5048239;28;20292;-76
2022/02/09 03:09:45;;;;;;;13.40;12.30;;;6.40;99.90;;;;;;5048695;28;20668;-77
2022/02/09 03:12:15;;;;;;;13.77;12.50;;;6.40;99.90;;;;;;5045597;28;20307;-77
2022/02/09 03:14:49;;;;;;;11.87;10.70;;;6.40;99.90;;;;;;5033851;28;20216;-77
2022/02/09 03:17:21;;;;;;;12.03;11.13;;;6.40;99.90;;;;;;5046746;28;20200;-77
2022/02/09 03:19:59;;;;;;;12.80;11.80;;;6.40;99.90;;;;;;5048383;28;20643;-77
2022/02/09 03:22:38;;;;;;;13.07;12.07;;;6.40;99.90;;;;;;5047059;28;20213;-77
2022/02/09 03:25:30;;;;;;;12.10;11.10;;;6.40;99.90;;;;;;5047999;28;20211;-76
2022/02/09 03:31:10;;;;;;;12.23;11.23;;;6.40;99.90;;;;;;5047908;28;20208;-77
2022/02/09 03:47:44;;;;;;;11.97;10.97;;;6.30;99.90;;;;;;5036268;28;20196;-78
2022/02/09 03:50:36;;;;;;;13.07;11.83;;;6.30;99.90;;;;;;5036869;28;20204;-77
2022/02/09 03:58:40;;;;;;;12.20;11.10;;;6.20;99.90;;;;;;5007685;28;20193;-79
2022/02/09 04:01:07;;;;;;;12.53;11.53;;;6.10;99.90;;;;;;5035807;28;20198;-78
2022/02/09 04:03:34;;;;;;;12.73;11.53;;;6.00;99.90;;;;;;5034410;28;20224;-77
2022/02/09 04:06:01;;;;;;;11.53;10.63;;;5.90;99.90;;;;;;5035268;28;20200;-78
2022/02/09 04:08:30;;;;;;;12.13;11.10;;;5.80;99.90;;;;;;5035674;28;20688;-78
2022/02/09 04:11:08;;;;;;;12.00;10.97;;;5.70;99.90;;;;;;5037204;28;20212;-78
2022/02/09 04:13:44;;;;;;;12.40;11.30;;;5.60;99.90;;;;;;5030466;28;20220;-78
2022/02/09 04:16:20;;;;;;;12.70;11.60;;;5.50;99.90;;;;;;5035395;28;20208;-78
2022/02/09 04:18:58;;;;;;;12.27;11.10;;;5.40;99.90;;;;;;5035900;28;20215;-78
2022/02/09 04:38:03;;;;;;;13.30;12.00;;;4.70;99.90;;;;;;5027522;28;20274;-77
2022/02/09 04:41:14;;;;;;;11.93;11.00;;;4.60;99.90;;;;;;5032285;28;20281;-77
2022/02/09 04:43:48;;;;;;;13.93;11.77;;;4.50;99.90;;;;;;5031160;28;20289;-75
2022/02/09 04:46:58;;;;;;;12.07;11.07;;;4.40;99.90;;;;;;5030539;28;20278;-75
2022/02/09 04:49:40;;;;;;;13.57;12.47;;;4.30;99.90;;;;;;5032777;28;20195;-75
2022/02/09 04:52:23;;;;;;;13.47;12.03;;;4.30;99.90;;;;;;5031188;28;20644;-75
2022/02/09 04:54:54;;;;;;;13.40;12.30;;;4.10;99.90;;;;;;5031998;28;20223;-75
2022/02/09 04:57:32;;;;;;;13.03;12.00;;;4.10;99.90;;;;;;5032667;28;20208;-75
2022/02/09 05:00:17;;;;;;;12.87;11.70;;;4.10;99.90;;;;;;5033210;28;20566;-77
2022/02/09 05:03:16;;;;;;;12.57;11.57;;;3.90;99.90;;;;;;5027929;28;20303;-75
2022/02/09 05:25:40;;;;;;;14.00;12.90;;;3.10;99.90;;;;;;4990688;28;20595;-76
2022/02/09 05:28:10;;;;;;;12.73;11.83;;;3.10;99.90;;;;;;5021992;28;20445;-77
2022/02/09 05:30:37;;;;;;;14.13;13.03;;;3.10;99.90;;;;;;5032221;28;20470;-77
2022/02/09 05:33:08;;;;;;;13.50;12.30;;;3.10;99.90;;;;;;5032559;28;20457;-77
2022/02/09 05:35:35;;;;;;;14.00;12.80;;;3.00;99.90;;;;;;5034317;28;20449;-77
2022/02/09 05:38:02;;;;;;;13.90;12.90;;;3.00;99.90;;;;;;5024248;28;20469;-77
2022/02/09 05:40:29;;;;;;;13.40;12.37;;;3.00;99.90;;;;;;5025408;28;20435;-77
2022/02/09 05:42:57;;;;;;;14.33;13.13;;;3.00;99.90;;;;;;5032900;28;20525;-77
2022/02/09 05:45:28;;;;;;;14.30;13.20;;;3.00;99.90;;;;;;5032499;28;20883;-77
2022/02/09 05:50:50;;;;;;;14.73;13.23;;;3.00;99.90;;;;;;5028702;28;20196;-76
2022/02/09 05:53:22;;;;;;;14.50;13.10;;;3.00;99.90;;;;;;5023449;28;20235;-75
2022/02/09 05:55:51;;;;;;;14.93;13.43;;;3.00;99.90;;;;;;5029378;28;20454;-75
2022/02/09 05:58:35;;;;;;;15.03;13.80;;;2.90;99.90;;;;;;5031084;28;20484;-75
2022/02/09 06:01:05;;;;;;;15.57;13.57;;;2.90;99.90;;;;;;5030506;28;20450;-75
2022/02/09 06:03:33;;;;;;;15.00;13.60;;;2.90;99.90;;;;;;5023296;28;20669;-75
2022/02/09 06:06:03;;;;;;;14.33;13.03;;;2.90;99.90;;;;;;5030653;28;20489;-75
2022/02/09 06:08:31;;;;;;;15.27;13.70;;;2.90;99.90;;;;;;5022190;28;20842;-75
2022/02/09 06:11:11;;;;;;;14.10;12.90;;;2.90;99.90;;;;;;5031538;28;20439;-75
2022/02/09 06:13:59;;;;;;;13.43;12.33;;;2.90;99.90;;;;;;5028004;28;20490;-75
2022/02/09 06:19:44;;;;;;;14.10;12.83;;;2.80;99.90;;;;;;5020201;28;20239;-75
2022/02/09 06:22:13;;;;;;;13.80;12.77;;;2.80;99.90;;;;;;5004099;28;20447;-75
2022/02/09 06:24:42;;;;;;;13.97;12.83;;;2.80;99.90;;;;;;5019378;28;20222;-75
2022/02/09 06:27:10;;;;;;;14.40;13.10;;;2.80;99.90;;;;;;5029841;28;21319;-75
2022/02/09 06:29:37;;;;;;;14.47;13.37;;;2.70;99.90;;;;;;5031487;28;20430;-75
2022/02/09 06:32:08;;;;;;;13.83;12.70;;;2.70;99.90;;;;;;5029966;28;20482;-75
2022/02/09 06:34:36;;;;;;;14.03;12.93;;;2.70;99.90;;;;;;5031768;28;20243;-75
2022/02/09 06:37:12;;;;;;;14.77;13.57;;;2.70;99.90;;;;;;5031101;28;20841;-75
2022/02/09 06:39:44;;;;;;;15.30;13.70;;;2.60;99.90;;;;;;5031347;28;20782;-75
2022/02/09 06:42:11;;;;;;;14.17;12.83;;;2.70;99.90;;;;;;5031289;28;20434;-75
2022/02/09 06:44:37;;;;;;;14.90;13.70;;;2.60;99.90;;;;;;5029752;28;20510;-75
2022/02/09 06:47:05;;;;;;;14.33;13.10;;;2.60;99.90;;;;;;5031137;28;20435;-75
2022/02/09 06:49:33;;;;;;;13.63;12.50;;;2.60;99.90;;;;;;5031080;28;20862;-75
2022/02/09 06:52:00;;;;;;;14.13;12.93;;;2.50;99.90;;;;;;5031389;28;20477;-75
2022/02/09 06:54:31;;;;;;;15.00;13.60;;;2.60;99.90;;;;;;5031353;28;20458;-75
2022/02/09 06:57:05;;;;;;;14.83;13.53;;;2.60;99.90;;;;;;5029900;28;20479;-75
2022/02/09 06:59:34;;;;;;;16.00;12.67;;;2.50;99.90;;;;;;5031182;28;20785;-75
2022/02/09 07:02:04;;;;;;;15.10;13.80;;;2.50;99.90;;;;;;5031108;28;20462;-75
2022/02/09 07:04:32;;;;;;;14.40;13.20;;;2.60;99.90;;;;;;5021963;28;20470;-75
2022/02/09 07:06:59;;;;;;;14.47;13.23;;;2.60;99.90;;;;;;5029656;28;20449;-75
2022/02/09 07:09:28;;;;;;;15.43;13.83;;;2.60;99.90;;;;;;5029561;28;20503;-75
2022/02/09 07:11:55;;;;;;;14.40;13.20;;;2.60;99.90;;;;;;5031048;28;20474;-79
2022/02/09 07:14:25;;;;;;;14.87;13.77;;;2.60;99.90;;;;;;5031283;28;20519;-75
2022/02/09 07:16:54;;;;;;;15.20;13.53;;;2.60;99.90;;;;;;5028447;28;20462;-76
2022/02/09 07:19:21;;;;;;;14.50;13.27;;;2.70;99.90;;;;;;5031694;28;20958;-76
2022/02/09 07:21:48;;;;;;;14.83;13.63;;;2.70;99.90;;;;;;5032617;28;20807;-75
2022/02/09 07:24:20;;;;;;;14.97;13.70;;;2.80;99.90;;;;;;5034305;28;20455;-75
2022/02/09 07:27:02;;;;;;;14.47;13.17;;;2.80;99.90;;;;;;5034533;28;20286;-76
2022/02/09 07:29:30;;;;;;;15.80;14.20;;;2.90;99.90;;;;;;5031081;28;20536;-75
2022/02/09 07:31:57;;;;;;;14.83;13.43;;;3.00;99.90;;;;;;5034601;28;20587;-75
2022/02/09 07:34:24;;;;;;;14.13;13.03;;;3.10;99.90;;;;;;5033942;28;20454;-75
2022/02/09 07:36:51;;;;;;;15.97;14.57;;;3.10;99.90;;;;;;5034359;28;20434;-75
2022/02/09 07:39:19;;;;;;;15.40;14.03;;;3.30;99.90;;;;;;5034121;28;20557;-75
2022/02/09 07:41:48;;;;;;;18.33;14.80;;;3.30;99.90;;;;;;5034375;28;20797;-75
2022/02/09 07:44:30;;;;;;;16.20;14.80;;;3.50;99.90;;;;;;5032814;28;20231;-75
2022/02/09 07:47:22;;;;;;;15.90;14.30;;;3.80;99.90;;;;;;5034185;28;20520;-75
2022/02/09 07:50:04;;;;;;;16.30;14.50;;;4.10;99.90;;;;;;5032853;28;20250;-75
2022/02/09 07:52:48;;;;;;;16.60;14.80;;;4.30;99.90;;;;;;5034174;28;20204;-75
2022/02/09 07:55:14;;;;;;;15.23;13.93;;;4.50;99.90;;;;;;5032673;28;20285;-75
2022/02/09 07:57:41;;;;;;;14.90;13.50;;;4.50;99.90;;;;;;5033570;28;20245;-75
2022/02/09 08:00:10;;;;;;;13.83;12.63;;;4.80;99.90;;;;;;5032579;28;20246;-75
2022/02/09 08:02:46;;;;;;;14.07;12.87;;;4.90;99.90;;;;;;5033924;28;20245;-76
2022/02/09 08:05:13;;;;;;;11.40;9.03;;;5.00;99.90;;;;;;5033802;28;20212;-76
2022/02/09 08:07:40;;;;;;;8.87;7.63;;;5.20;99.90;;;;;;5033452;28;20200;-76
2022/02/09 08:10:16;;;;;;;14.50;13.20;;;5.30;99.90;;;;;;5033684;28;20279;-76
2022/02/09 08:20:24;;;;;;;10.47;9.47;;;5.40;99.90;;;;;;5032424;28;20208;-76
2022/02/09 08:24:13;;;;;;;8.80;6.20;;;6.80;99.90;;;;;;5029800;28;20205;-76
2022/02/09 08:26:55;;;;;;;10.07;6.43;;;7.20;99.90;;;;;;5026184;28;20281;-76
2022/02/09 08:29:27;;;;;;;12.03;10.70;;;7.60;99.90;;;;;;5033197;28;20708;-76
2022/02/09 08:34:40;;;;;;;9.00;5.93;;;8.20;99.90;;;;;;5027312;28;20242;-77
2022/02/09 08:37:08;;;;;;;10.43;9.37;;;8.50;99.90;;;;;;5032905;28;20206;-76
2022/02/09 08:39:36;;;;;;;11.20;6.60;;;8.80;99.90;;;;;;5031151;28;20252;-76
2022/02/09 08:42:03;;;;;;;10.97;9.20;;;9.00;99.90;;;;;;5029650;28;20196;-76
2022/02/09 08:44:30;;;;;;;10.90;9.80;;;9.30;99.90;;;;;;5047437;22;20237;-76
2022/02/09 08:46:57;;;;;;;14.37;13.23;;;9.60;99.90;;;;;;5008015;28;20267;-75
2022/02/09 08:49:26;;;;;;;14.73;13.47;;;9.70;99.90;;;;;;5006774;28;20213;-76
2022/02/09 08:51:55;;;;;;;14.43;13.30;;;9.70;99.90;;;;;;5012261;28;20219;-76
2022/02/09 08:54:22;;;;;;;14.90;13.80;;;9.70;99.90;;;;;;5027776;28;20228;-76
2022/02/09 08:56:49;;;;;;;14.17;12.87;;;9.80;99.90;;;;;;5012951;28;20184;-76
2022/02/09 08:59:22;;;;;;;14.57;13.27;;;9.80;99.90;;;;;;5013323;28;20216;-75
2022/02/09 09:01:55;;;;;;;13.30;12.30;;;10.00;99.90;;;;;;5011875;28;20275;-76
2022/02/09 09:04:25;;;;;;;12.93;12.07;;;10.20;99.90;;;;;;5011910;28;20246;-76
2022/02/09 09:06:56;;;;;;;13.43;12.23;;;10.20;99.90;;;;;;5011524;28;20559;-74
2022/02/09 09:09:39;;;;;;;7.13;4.40;;;10.20;99.90;;;;;;5012890;28;20200;-74
2022/02/09 09:15:37;;;;;;;7.73;5.03;;;10.20;99.90;;;;;;5011418;28;20236;-74
2022/02/09 10:00:21;;;;;;;8.40;4.60;;;10.70;99.90;;;;;;4973267;28;20210;-76
2022/02/09 10:02:54;;;;;;;7.67;4.50;;;10.60;99.90;;;;;;5005476;28;20197;-76
2022/02/09 10:14:02;;;;;;;5.70;4.47;;;10.40;99.90;;;;;;5012028;28;20619;-75
2022/02/09 10:33:58;;;;;;;10.00;9.30;;;9.60;99.90;;;;;;5010404;28;20220;-74
2022/02/09 10:36:25;;;;;;;10.40;9.60;;;9.60;99.90;;;;;;5008255;28;20255;-74
2022/02/09 10:39:06;;;;;;;11.23;10.43;;;9.60;99.90;;;;;;5010314;28;20200;-75
2022/02/09 10:41:39;;;;;;;11.33;10.33;;;9.60;99.90;;;;;;5006250;28;20271;-74
2022/02/09 10:44:08;;;;;;;11.60;10.80;;;9.60;99.90;;;;;;5025079;28;20224;-74
2022/02/09 10:46:46;;;;;;;11.60;10.70;;;9.60;99.90;;;;;;5008498;28;20224;-74
2022/02/09 10:49:17;;;;;;;10.90;10.00;;;9.60;99.90;;;;;;5010145;28;20201;-72
2022/02/09 10:51:48;;;;;;;11.03;10.20;;;9.60;99.90;;;;;;5010165;28;20203;-74
2022/02/09 10:54:17;;;;;;;10.33;9.57;;;9.70;99.90;;;;;;5013994;28;20216;-75
2022/02/09 10:56:46;;;;;;;11.47;10.53;;;9.70;99.90;;;;;;5013914;28;20275;-74
2022/02/09 10:59:17;;;;;;;11.80;10.87;;;9.70;99.90;;;;;;4998921;28;20665;-74
2022/02/09 11:01:45;;;;;;;11.57;10.47;;;9.60;99.90;;;;;;5013159;28;20736;-74
2022/02/09 11:04:13;;;;;;;11.43;10.60;;;9.70;99.90;;;;;;5013472;28;20213;-73
2022/02/09 11:06:42;;;;;;;11.60;10.60;;;9.70;99.90;;;;;;5011269;28;20247;-74
2022/02/09 11:09:10;;;;;;;10.93;10.17;;;9.60;99.90;;;;;;5013459;28;20200;-74
2022/02/09 11:11:39;;;;;;;11.53;10.73;;;9.70;99.90;;;;;;5006446;28;20201;-74
2022/02/09 11:14:10;;;;;;;11.20;10.40;;;9.80;99.90;;;;;;5000986;28;20220;-75
2022/02/09 11:16:37;;;;;;;11.27;10.40;;;9.90;99.90;;;;;;5007759;28;20224;-74
2022/02/09 11:19:07;;;;;;;11.13;10.33;;;9.90;99.90;;;;;;5012596;28;20545;-75
2022/02/09 11:21:37;;;;;;;11.20;10.40;;;10.00;99.90;;;;;;5007104;28;20196;-74
2022/02/09 11:24:19;;;;;;;11.40;10.60;;;10.10;99.90;;;;;;5013027;28;20212;-75
2022/02/09 11:26:54;;;;;;;11.60;10.70;;;10.10;99.90;;;;;;5006209;28;20585;-74
2022/02/09 11:29:40;;;;;;;10.63;9.93;;;10.10;99.90;;;;;;5013256;28;20701;-74
2022/02/09 11:32:38;;;;;;;11.67;10.93;;;10.10;99.90;;;;;;5012017;28;20250;-74
2022/02/09 11:35:20;;;;;;;11.33;10.63;;;10.10;99.90;;;;;;5021203;28;20639;-75
2022/02/09 11:37:56;;;;;;;11.60;10.83;;;10.20;99.90;;;;;;5010885;28;20201;-74
2022/02/09 11:40:35;;;;;;;11.23;10.43;;;10.20;99.90;;;;;;5011398;28;20283;-74
2022/02/09 11:47:18;;;;;;;10.33;9.43;;;10.30;99.90;;;;;;5010725;28;20189;-74
2022/02/09 12:10:26;;;;;;;9.57;8.97;;;10.60;99.90;;;;;;5012628;28;20216;-76
2022/02/09 12:13:02;;;;;;;9.77;9.13;;;10.60;99.90;;;;;;5013962;28;20210;-77
2022/02/09 12:16:31;;;;;;;9.97;9.13;;;10.60;99.90;;;;;;5006718;28;20209;-76
2022/02/09 12:18:59;;;;;;;9.87;9.27;;;10.70;99.90;;;;;;5002033;28;20228;-75
2022/02/09 12:21:41;;;;;;;9.57;8.87;;;10.70;99.90;;;;;;5008664;28;20193;-76
2022/02/09 12:24:26;;;;;;;9.40;8.80;;;10.80;99.90;;;;;;4999056;28;20666;-76
2022/02/09 12:27:01;;;;;;;9.77;8.97;;;10.90;99.90;;;;;;5001104;28;20190;-76
2022/02/09 12:29:34;;;;;;;12.47;11.53;;;10.90;99.90;;;;;;4994917;28;20205;-76
2022/02/09 12:32:02;;;;;;;9.87;9.17;;;10.90;99.90;;;;;;5001171;28;20210;-76
2022/02/09 12:34:30;;;;;;;9.73;9.03;;;10.90;99.90;;;;;;4996938;28;20229;-76
2022/02/09 12:36:57;;;;;;;9.83;9.13;;;10.90;99.90;;;;;;4998063;28;20204;-76
2022/02/09 12:39:26;;;;;;;9.97;9.27;;;11.00;99.90;;;;;;4999086;28;20268;-76
2022/02/09 12:41:59;;;;;;;9.77;9.17;;;11.10;99.90;;;;;;4998371;28;20197;-76
2022/02/09 12:44:26;;;;;;;9.33;8.73;;;11.10;99.90;;;;;;4999137;28;20311;-76
2022/02/09 12:46:52;;;;;;;9.37;8.77;;;11.20;99.90;;;;;;4998113;28;20245;-76
2022/02/09 12:49:23;;;;;;;9.80;9.10;;;11.20;99.90;;;;;;5000092;28;20217;-79
2022/02/09 12:51:51;;;;;;;9.23;8.53;;;11.20;99.90;;;;;;4999256;28;20194;-76
2022/02/09 12:54:20;;;;;;;9.37;8.73;;;11.20;99.90;;;;;;4999071;28;20304;-75
2022/02/09 12:56:53;;;;;;;9.27;8.67;;;11.30;99.90;;;;;;4997878;28;20248;-76
2022/02/09 12:59:21;;;;;;;9.10;8.50;;;11.30;99.90;;;;;;5000538;28;20202;-76
2022/02/09 13:01:50;;;;;;;9.10;8.50;;;11.40;99.90;;;;;;5005688;28;20260;-76
2022/02/09 13:04:33;;;;;;;9.40;8.80;;;11.40;99.90;;;;;;5004236;28;20233;-76
2022/02/09 13:07:02;;;;;;;9.40;8.80;;;11.40;99.90;;;;;;5010022;28;20201;-76
2022/02/09 13:09:29;;;;;;;9.27;8.67;;;11.50;99.90;;;;;;4999979;28;20653;-76
2022/02/09 13:11:57;;;;;;;9.10;8.50;;;11.60;99.90;;;;;;5009999;28;20205;-77
2022/02/09 13:14:30;;;;;;;9.30;8.70;;;11.70;99.90;;;;;;4995196;28;20232;-76
2022/02/09 13:17:13;;;;;;;9.90;9.20;;;11.70;99.90;;;;;;4996752;28;20284;-76
2022/02/09 14:08:06;;;;;;;8.80;8.20;;;12.40;99.90;;;;;;5008017;28;20496;-75
2022/02/09 14:10:55;;;;;;;9.07;8.47;;;12.40;99.90;;;;;;5003189;28;20770;-76
2022/02/09 14:13:31;;;;;;;8.73;8.23;;;12.40;99.90;;;;;;5008234;28;20317;-75
2022/02/09 14:19:07;;;;;;;9.00;8.30;;;12.50;99.90;;;;;;4978557;28;20190;-75
2022/02/09 14:52:07;;;;;;;8.30;7.80;;;12.50;99.90;;;;;;5003514;28;20195;-76
2022/02/09 14:54:41;;;;;;;8.33;7.83;;;12.50;99.90;;;;;;5017821;28;20231;-75
2022/02/09 14:57:12;;;;;;;8.70;8.20;;;12.50;99.90;;;;;;5002498;28;20206;-75
2022/02/09 14:59:51;;;;;;;8.90;8.30;;;12.50;99.90;;;;;;5008124;28;20192;-75
2022/02/09 15:02:23;;;;;;;8.63;8.13;;;12.40;99.90;;;;;;5040093;22;20345;-76
2022/02/09 15:07:48;;;;;;;8.80;8.30;;;12.40;99.90;;;;;;4985817;28;20545;-76
2022/02/09 15:10:20;;;;;;;8.90;8.40;;;12.40;99.90;;;;;;5041712;28;20716;-76
2022/02/09 15:12:57;;;;;;;8.87;8.33;;;12.40;99.90;;;;;;5048925;28;20230;-76
2022/02/09 15:15:36;;;;;;;8.60;8.10;;;12.40;99.90;;;;;;5048638;28;20217;-76
2022/02/09 15:18:36;;;;;;;9.17;8.67;;;12.40;99.90;;;;;;5050065;28;20195;-76
2022/02/09 15:21:21;;;;;;;9.20;8.70;;;12.40;99.90;;;;;;5047492;28;20805;-76
2022/02/09 15:23:51;;;;;;;9.40;8.80;;;12.40;99.90;;;;;;5048048;28;20265;-80
2022/02/09 15:26:19;;;;;;;9.03;8.53;;;12.30;99.90;;;;;;5054065;28;20199;-77
2022/02/09 15:28:48;;;;;;;8.80;8.30;;;12.40;99.90;;;;;;5048962;28;20571;-79
2022/02/09 15:31:22;;;;;;;9.10;8.60;;;12.30;99.90;;;;;;5048232;28;20242;-77
2022/02/09 15:34:00;;;;;;;9.10;8.60;;;12.40;99.90;;;;;;5047701;28;20709;-79
2022/02/09 15:36:46;;;;;;;9.10;8.50;;;12.30;99.90;;;;;;5051172;28;20216;-79
2022/02/09 15:39:15;;;;;;;9.50;8.90;;;12.30;99.90;;;;;;5066410;28;20252;-79
2022/02/09 15:41:58;;;;;;;9.00;8.40;;;12.30;99.90;;;;;;5069479;28;20217;-78
2022/02/09 15:58:56;;;;;;;8.50;8.00;;;11.90;99.90;;;;;;5043533;28;20203;-77
2022/02/09 16:07:54;;;;;;;8.60;8.10;;;11.70;99.90;;;;;;5027256;28;20213;-77
2022/02/09 16:09:58;;;;;;;8.60;8.10;;;11.50;99.90;;;;;;5062035;28;20204;-77
2022/02/09 16:23:37;;;;;;;9.10;8.30;;;10.90;99.90;;;;;;5061653;28;20192;-77
2022/02/09 16:33:10;;;;;;;9.00;8.30;;;10.80;99.90;;;;;;5064735;28;20204;-76
2022/02/09 16:35:13;;;;;;;8.70;8.00;;;10.50;99.90;;;;;;5059405;28;20223;-78
2022/02/09 16:37:50;;;;;;;8.47;7.87;;;10.30;99.90;;;;;;5052576;28;20201;-77
2022/02/09 16:48:47;;;;;;;9.40;8.80;;;9.90;99.90;;;;;;5025063;28;20261;-78
2022/02/09 16:51:17;;;;;;;8.80;8.10;;;9.80;99.90;;;;;;5056853;28;20315;-77
2022/02/09 16:53:52;;;;;;;10.60;9.70;;;9.70;99.90;;;;;;5054749;28;20281;-78
2022/02/09 16:56:28;;;;;;;9.47;8.87;;;9.50;99.90;;;;;;5060749;28;20210;-77
2022/02/09 17:15:36;;;;;;;10.90;10.00;;;9.00;99.90;;;;;;5050286;28;20211;-76
2022/02/09 17:20:49;;;;;;;10.23;9.37;;;8.90;99.90;;;;;;5051644;28;20218;-75
2022/02/09 17:23:16;;;;;;;10.83;9.83;;;8.70;99.90;;;;;;5042739;28;20229;-76
2022/02/09 17:25:44;;;;;;;12.60;9.83;;;8.70;99.90;;;;;;5041950;28;20253;-76
2022/02/09 17:28:14;;;;;;;10.37;9.47;;;8.60;99.90;;;;;;5048205;28;20481;-76
2022/02/09 17:36:18;;;;;;;10.27;9.43;;;8.50;99.90;;;;;;5035870;28;20214;-76
2022/02/09 17:38:51;;;;;;;11.23;10.27;;;8.40;99.90;;;;;;5056869;28;20596;-76
2022/02/09 17:57:50;;;;;;;10.97;10.07;;;8.00;99.90;;;;;;5050258;28;20228;-76
2022/02/09 18:00:17;;;;;;;12.73;10.83;;;7.90;99.90;;;;;;5055028;28;20278;-76
2022/02/09 18:02:46;;;;;;;11.13;10.03;;;7.90;99.90;;;;;;5044767;28;20313;-77
2022/02/09 18:05:23;;;;;;;11.10;10.10;;;7.90;99.90;;;;;;5050743;28;20232;-76
2022/02/09 18:07:55;;;;;;;11.53;10.47;;;7.80;99.90;;;;;;5050962;28;20203;-77
2022/02/09 18:10:39;;;;;;;11.17;10.23;;;7.80;99.90;;;;;;5049741;28;20199;-76
2022/02/09 18:13:37;;;;;;;10.97;10.03;;;7.70;99.90;;;;;;5048291;28;20278;-76
2022/02/09 18:29:56;;;;;;;11.73;10.70;;;7.40;99.90;;;;;;5047355;28;20678;-76
2022/02/09 18:38:12;;;;;;;11.90;10.70;;;7.20;99.90;;;;;;5035131;28;20212;-76
2022/02/09 18:43:25;;;;;;;11.80;10.80;;;7.10;99.90;;;;;;5050739;28;20260;-76
2022/02/09 18:45:58;;;;;;;11.80;10.63;;;7.10;99.90;;;;;;5049245;28;20715;-77
2022/02/09 18:48:52;;;;;;;11.37;10.27;;;7.00;99.90;;;;;;5047769;28;20299;-77
2022/02/09 18:57:13;;;;;;;12.40;11.40;;;6.90;99.90;;;;;;5037758;28;20209;-77
2022/02/09 18:59:57;;;;;;;12.07;10.97;;;6.80;99.90;;;;;;5048896;28;20193;-77
2022/02/09 19:02:38;;;;;;;12.77;11.50;;;6.80;99.90;;;;;;5050155;28;20613;-75
2022/02/09 19:05:18;;;;;;;12.80;11.70;;;6.70;99.90;;;;;;5046976;28;20287;-77
2022/02/09 19:08:12;;;;;;;12.57;11.37;;;6.60;99.90;;;;;;5048992;28;20200;-77
2022/02/09 19:28:05;;;;;;;12.97;11.77;;;6.30;99.90;;;;;;5054189;28;20194;-79
2022/02/09 19:30:39;;;;;;;12.77;11.53;;;6.20;99.90;;;;;;5046243;28;20732;-78
2022/02/09 19:46:49;;;;;;;12.53;11.23;;;5.80;99.90;;;;;;5051022;28;20219;-76
2022/02/09 19:49:30;;;;;;;13.67;11.93;;;5.80;99.90;;;;;;5052970;28;20231;-76
2022/02/09 19:52:08;;;;;;;13.27;11.97;;;5.70;99.90;;;;;;5052276;28;20216;-77
2022/02/09 19:54:44;;;;;;;12.40;11.17;;;5.70;99.90;;;;;;5050886;28;20755;-76
2022/02/09 19:57:12;;;;;;;13.37;12.03;;;5.60;99.90;;;;;;5054855;28;20210;-74
2022/02/09 19:59:41;;;;;;;14.53;12.20;;;5.60;99.90;;;;;;5052989;28;20210;-76
2022/02/09 20:02:11;;;;;;;13.53;12.17;;;5.60;99.90;;;;;;5051804;28;20219;-75
2022/02/09 20:04:38;;;;;;;13.53;12.07;;;5.60;99.90;;;;;;5042873;28;20193;-76
2022/02/09 20:07:06;;;;;;;13.47;12.17;;;5.50;99.90;;;;;;5039406;28;20197;-75
2022/02/09 20:09:33;;;;;;;13.10;11.90;;;5.50;99.90;;;;;;5040101;28;20584;-74
2022/02/09 20:12:00;;;;;;;13.03;11.83;;;5.50;99.90;;;;;;5039831;28;20207;-76
2022/02/09 20:14:28;;;;;;;12.93;11.73;;;5.50;99.90;;;;;;5047124;28;20625;-76
2022/02/09 20:16:56;;;;;;;13.73;11.43;;;5.40;99.90;;;;;;5052019;28;20222;-75
2022/02/09 20:19:23;;;;;;;12.80;11.50;;;5.30;99.90;;;;;;5051317;28;20207;-75
2022/02/09 20:21:50;;;;;;;14.10;12.70;;;5.30;99.90;;;;;;5051624;28;20273;-75
2022/02/09 20:24:17;;;;;;;12.57;11.30;;;5.30;99.90;;;;;;5051421;28;20733;-75
2022/02/09 20:26:45;;;;;;;13.33;12.03;;;5.30;99.90;;;;;;5053013;28;20191;-75
2022/02/09 20:29:13;;;;;;;12.40;11.30;;;5.20;99.90;;;;;;5051703;28;20663;-75
2022/02/09 20:31:47;;;;;;;13.73;12.33;;;5.20;99.90;;;;;;5053101;28;20240;-75
2022/02/09 20:34:23;;;;;;;13.00;11.80;;;5.20;99.90;;;;;;5053449;28;20207;-74
2022/02/09 20:36:50;;;;;;;13.47;12.17;;;5.10;99.90;;;;;;5049340;28;20202;-75
2022/02/09 20:39:22;;;;;;;13.40;12.10;;;5.20;99.90;;;;;;5052272;28;20203;-76
2022/02/09 20:41:49;;;;;;;12.40;11.30;;;5.10;99.90;;;;;;5049510;28;20225;-75
2022/02/09 20:44:28;;;;;;;13.30;12.10;;;5.00;99.90;;;;;;5052885;28;20214;-75
2022/02/09 20:46:57;;;;;;;12.87;11.67;;;5.00;99.90;;;;;;5053001;28;20211;-75
2022/02/09 20:49:26;;;;;;;13.20;11.90;;;5.00;99.90;;;;;;5051655;28;20241;-75
2022/02/09 20:51:52;;;;;;;14.03;12.83;;;5.00;99.90;;;;;;5052454;28;20253;-77
2022/02/09 20:54:19;;;;;;;13.33;12.23;;;4.90;99.90;;;;;;5051550;28;20246;-75
2022/02/09 20:56:46;;;;;;;13.80;12.43;;;4.90;99.90;;;;;;5052544;28;20195;-75
2022/02/09 20:59:15;;;;;;;14.10;12.70;;;4.90;99.90;;;;;;5051162;28;20207;-77
2022/02/09 21:01:50;;;;;;;13.63;12.40;;;4.80;99.90;;;;;;5063403;23;21825;-76
2022/02/09 21:04:20;;;;;;;14.67;13.27;;;4.90;99.90;;;;;;5008672;28;20215;-77
2022/02/09 21:07:04;;;;;;;14.90;13.43;;;4.80;99.90;;;;;;5011654;28;20291;-76
2022/02/09 21:09:39;;;;;;;13.77;12.47;;;4.80;99.90;;;;;;5011221;28;20200;-76
2022/02/09 21:12:18;;;;;;;14.63;13.27;;;4.70;99.90;;;;;;5012882;28;20727;-76
2022/02/09 21:15:06;;;;;;;13.40;12.30;;;4.70;99.90;;;;;;5012912;28;20215;-77
2022/02/09 21:17:58;;;;;;;14.70;13.30;;;4.70;99.90;;;;;;5006886;28;20283;-77
2022/02/09 21:23:40;;;;;;;15.37;13.87;;;4.60;99.90;;;;;;4972570;28;20224;-77
2022/02/09 21:26:34;;;;;;;14.83;13.53;;;4.50;99.90;;;;;;5012650;28;20200;-76
2022/02/09 21:46:19;;;;;;;14.57;13.27;;;4.20;99.90;;;;;;5004748;28;20227;-77
2022/02/09 21:54:21;;;;;;;16.03;14.07;;;4.00;99.90;;;;;;5008964;28;20201;-77
2022/02/09 21:56:53;;;;;;;14.07;12.63;;;3.90;99.90;;;;;;5011999;28;20203;-76
2022/02/09 21:59:40;;;;;;;14.97;13.67;;;3.90;99.90;;;;;;5012295;28;20200;-77
2022/02/09 22:16:29;;;;;;;15.63;14.17;;;3.50;99.90;;;;;;5012069;28;20216;-76
2022/02/09 22:19:20;;;;;;;16.60;14.87;;;3.40;99.90;;;;;;5006790;28;20610;-76
2022/02/09 22:22:16;;;;;;;14.93;13.43;;;3.30;99.90;;;;;;5006317;28;20469;-76
2022/02/09 22:26:02;;;;;;;16.30;14.60;;;3.20;99.90;;;;;;5004693;28;20265;-77
2022/02/09 22:27:57;;;;;;;15.20;13.60;;;3.10;99.90;;;;;;5005828;28;20616;-76